Time;durP1;ratioP1;P1;durP2;ratioP2;P2;SDS_P1;SDS_P2;PMS_P1;PMS_P2;Temp;Humidity;BMP_temperature;BMP_pressure;BME280_temperature;BME280_humidity;BME280_pressure;Samples;Min_cycle;Max_cycle;Signal;HPM_P1;HPM_P2
2021/07/27 00:01:28;;;;;;;22.60;16.40;;;;;;;18.58;92.99;100635.53;4975256;28;20088;-84
2021/07/27 00:03:53;;;;;;;21.20;16.42;;;;;;;18.54;93.51;100639.75;4984063;28;20445;-83
2021/07/27 00:06:20;;;;;;;22.50;15.52;;;;;;;18.55;93.35;100640.59;4975585;28;20118;-86
2021/07/27 00:08:45;;;;;;;22.02;15.82;;;;;;;18.44;94.11;100637.53;4971471;28;20063;-85
2021/07/27 00:11:11;;;;;;;21.83;16.20;;;;;;;18.45;94.66;100643.81;4980553;28;20129;-83
2021/07/27 00:13:39;;;;;;;21.67;15.43;;;;;;;18.39;95.64;100639.25;4980725;28;20062;-82
2021/07/27 00:16:06;;;;;;;20.58;16.38;;;;;;;18.33;95.12;100640.13;4976813;28;20092;-84
2021/07/27 00:18:33;;;;;;;24.38;16.30;;;;;;;18.30;95.48;100641.41;4982126;28;20404;-86
2021/07/27 00:21:05;;;;;;;20.92;14.40;;;;;;;18.29;95.55;100650.56;4978158;28;20045;-84
2021/07/27 00:23:38;;;;;;;17.95;14.35;;;;;;;18.26;96.06;100649.13;4972472;28;20421;-83
2021/07/27 00:26:13;;;;;;;20.17;14.48;;;;;;;18.20;96.50;100650.00;4971727;28;20069;-82
2021/07/27 00:28:40;;;;;;;19.45;14.90;;;;;;;18.22;96.35;100652.50;4974140;28;20485;-83
2021/07/27 00:31:07;;;;;;;21.02;15.43;;;;;;;18.15;96.58;100652.53;4982057;28;20046;-84
2021/07/27 00:33:34;;;;;;;20.00;15.65;;;;;;;18.17;97.25;100665.91;4982932;28;20069;-84
2021/07/27 00:36:02;;;;;;;21.30;15.50;;;;;;;18.16;96.90;100658.81;4980808;28;20073;-82
2021/07/27 00:38:28;;;;;;;20.77;15.10;;;;;;;18.13;97.42;100667.41;4972534;28;20054;-86
2021/07/27 00:40:53;;;;;;;22.25;15.48;;;;;;;18.07;97.78;100663.69;4981875;28;20565;-83
2021/07/27 00:43:20;;;;;;;21.80;15.38;;;;;;;18.06;97.72;100663.88;4983193;28;20050;-82
2021/07/27 00:45:46;;;;;;;23.67;15.45;;;;;;;18.06;97.12;100662.00;4979381;28;20058;-83
2021/07/27 00:48:11;;;;;;;24.05;16.65;;;;;;;18.04;97.89;100658.69;4976507;28;20043;-89
2021/07/27 00:50:38;;;;;;;24.55;15.80;;;;;;;17.97;99.18;100663.28;4973483;28;20054;-88
2021/07/27 00:53:04;;;;;;;24.35;16.60;;;;;;;17.98;99.40;100662.22;4969665;28;20054;-84
2021/07/27 00:55:31;;;;;;;23.42;17.00;;;;;;;17.94;99.79;100669.16;4975326;28;20099;-85
2021/07/27 00:57:57;;;;;;;22.88;16.23;;;;;;;18.01;99.65;100659.09;4983585;28;20055;-84
2021/07/27 01:00:23;;;;;;;26.20;17.38;;;;;;;17.96;100.00;100662.47;4981902;28;20051;-83
2021/07/27 01:02:49;;;;;;;24.13;17.95;;;;;;;18.02;98.67;100656.16;4965291;28;20050;-85
2021/07/27 01:05:16;;;;;;;25.88;18.70;;;;;;;18.04;99.21;100655.97;4981191;28;20100;-85
2021/07/27 01:07:43;;;;;;;26.30;18.17;;;;;;;18.03;99.65;100657.81;4981334;28;20058;-88
2021/07/27 01:10:11;;;;;;;25.58;17.40;;;;;;;18.05;99.67;100660.34;4976180;28;20109;-84
2021/07/27 01:12:38;;;;;;;23.58;17.33;;;;;;;18.03;99.57;100660.53;4981548;28;20050;-83
2021/07/27 01:15:05;;;;;;;25.50;17.80;;;;;;;17.97;100.00;100655.16;4980784;28;20073;-83
2021/07/27 01:17:30;;;;;;;23.48;17.77;;;;;;;17.97;99.74;100652.44;4984894;28;20054;-84
2021/07/27 01:20:03;;;;;;;25.10;19.00;;;;;;;17.98;99.33;100654.09;4982075;28;20100;-84
2021/07/27 01:43:49;;;;;;;27.70;19.65;;;;;;;18.14;100.00;100648.16;4982106;28;20046;-88
2021/07/27 01:46:16;;;;;;;26.08;19.10;;;;;;;18.06;100.00;100645.69;4984014;28;20499;-86
2021/07/27 01:48:43;;;;;;;30.20;19.83;;;;;;;18.04;100.00;100642.38;4978988;28;20051;-83
2021/07/27 01:51:08;;;;;;;30.17;19.42;;;;;;;18.15;99.66;100643.56;4981025;28;20047;-83
2021/07/27 01:53:47;;;;;;;29.77;20.27;;;;;;;18.16;99.86;100646.06;4969392;28;20065;-84
2021/07/27 01:56:13;;;;;;;28.45;19.95;;;;;;;18.18;99.54;100640.41;4986588;28;20049;-83
2021/07/27 01:58:39;;;;;;;32.15;20.23;;;;;;;18.17;99.43;100644.19;4986912;28;20134;-85
2021/07/27 02:01:05;;;;;;;34.38;22.40;;;;;;;18.18;99.36;100637.69;4987119;28;20133;-83
2021/07/27 02:03:30;;;;;;;32.03;21.20;;;;;;;18.18;99.45;100643.97;4977251;28;20057;-82
2021/07/27 02:05:55;;;;;;;32.60;21.35;;;;;;;18.20;99.00;100641.84;4972165;28;20085;-91
2021/07/27 02:08:21;;;;;;;35.70;22.35;;;;;;;18.18;99.74;100638.56;4965640;28;20474;-83
2021/07/27 02:10:51;;;;;;;41.50;23.60;;;;;;;18.19;98.81;100637.50;4967708;28;20105;-83
2021/07/27 02:13:27;;;;;;;36.30;23.77;;;;;;;18.19;99.21;100633.94;4976322;28;20035;-82
2021/07/27 02:15:52;;;;;;;34.83;23.63;;;;;;;18.18;99.11;100633.13;4968965;28;20050;-89
2021/07/27 02:18:18;;;;;;;38.75;24.33;;;;;;;18.19;99.49;100629.34;4967865;28;20066;-83
2021/07/27 02:20:43;;;;;;;40.33;26.33;;;;;;;18.18;98.72;100630.41;4978034;28;20071;-86
2021/07/27 02:23:08;;;;;;;45.55;26.17;;;;;;;18.16;100.00;100628.94;4968478;28;20094;-83
2021/07/27 02:25:34;;;;;;;48.10;29.55;;;;;;;18.17;99.51;100636.88;4983192;28;20125;-83
2021/07/27 02:28:00;;;;;;;46.72;29.15;;;;;;;18.19;99.39;100636.66;4971555;28;20483;-82
2021/07/27 02:30:26;;;;;;;49.47;28.65;;;;;;;18.17;100.00;100636.88;4988562;28;20638;-85
2021/07/27 02:32:51;;;;;;;51.83;28.73;;;;;;;18.19;99.90;100634.78;4985392;28;20066;-82
2021/07/27 02:35:18;;;;;;;48.60;29.23;;;;;;;18.15;99.86;100633.53;4977046;28;20423;-82
2021/07/27 02:37:44;;;;;;;52.15;29.83;;;;;;;18.18;99.74;100627.69;4990822;28;20050;-85
2021/07/27 02:40:10;;;;;;;54.58;31.77;;;;;;;18.22;98.83;100628.91;4988096;28;20120;-87
2021/07/27 02:42:36;;;;;;;54.22;32.75;;;;;;;18.22;98.44;100620.75;4990142;28;20049;-82
2021/07/27 02:45:11;;;;;;;54.85;30.80;;;;;;;18.19;99.55;100613.03;4989750;28;20054;-82
2021/07/27 02:47:41;;;;;;;52.47;30.35;;;;;;;18.14;100.00;100621.00;4960970;28;20046;-83
2021/07/27 02:50:10;;;;;;;56.63;32.83;;;;;;;18.11;99.77;100621.44;4986352;28;20042;-83
2021/07/27 02:52:37;;;;;;;54.42;33.67;;;;;;;18.10;100.00;100619.78;4988752;28;20093;-83
2021/07/27 02:55:03;;;;;;;58.95;33.88;;;;;;;18.13;99.67;100629.38;4988982;28;20485;-83
2021/07/27 02:57:28;;;;;;;57.22;33.70;;;;;;;18.12;100.00;100627.69;4989102;28;20051;-83
2021/07/27 02:59:59;;;;;;;60.25;35.08;;;;;;;18.14;99.37;100625.63;4988231;28;20129;-83
2021/07/27 03:02:38;;;;;;;59.67;35.25;;;;;;;18.11;99.80;100618.72;4969391;28;20058;-84
2021/07/27 03:05:05;;;;;;;61.10;33.80;;;;;;;18.03;100.00;100621.69;4983199;28;20117;-82
2021/07/27 03:10:18;;;;;;;63.78;35.78;;;;;;;18.10;99.87;100619.78;4969327;28;20046;-82
2021/07/27 03:12:48;;;;;;;70.63;38.88;;;;;;;18.04;100.00;100626.09;4983643;28;20053;-82
2021/07/27 03:15:14;;;;;;;62.03;36.17;;;;;;;18.10;99.36;100635.25;4969044;28;20054;-92
2021/07/27 03:17:40;;;;;;;64.43;35.38;;;;;;;18.02;100.00;100639.03;4970933;28;20050;-83
2021/07/27 03:20:07;;;;;;;64.70;38.15;;;;;;;18.03;99.59;100629.84;4984797;28;20033;-82
2021/07/27 03:22:33;;;;;;;65.50;37.90;;;;;;;18.05;100.00;100633.19;4969840;28;20478;-84
2021/07/27 03:24:58;;;;;;;71.05;38.95;;;;;;;18.04;100.00;100628.81;4970514;28;20078;-82
2021/07/27 03:27:23;;;;;;;64.82;37.80;;;;;;;18.00;100.00;100627.56;4968681;28;20057;-85
2021/07/27 03:29:49;;;;;;;68.28;39.58;;;;;;;17.97;100.00;100626.13;4963115;28;20047;-91
2021/07/27 03:32:15;;;;;;;70.20;39.95;;;;;;;18.00;99.88;100636.53;4958166;28;20043;-83
2021/07/27 03:34:41;;;;;;;77.18;41.90;;;;;;;18.00;99.68;100639.25;4967367;28;20047;-82
2021/07/27 03:37:10;;;;;;;71.32;40.45;;;;;;;17.94;100.00;100645.56;4963741;28;20503;-86
2021/07/27 03:39:37;;;;;;;73.15;41.47;;;;;;;17.88;100.00;100642.88;4965325;28;20074;-81
2021/07/27 03:42:04;;;;;;;72.85;43.60;;;;;;;17.88;100.00;100632.03;4963352;28;20129;-81
2021/07/27 03:44:30;;;;;;;73.32;41.67;;;;;;;17.85;100.00;100632.44;4964581;28;20063;-82
2021/07/27 03:47:09;;;;;;;76.22;45.45;;;;;;;17.84;100.00;100631.63;4966044;28;20043;-84
2021/07/27 03:49:35;;;;;;;77.00;41.70;;;;;;;17.85;100.00;100635.16;4953593;28;20046;-83
2021/07/27 03:52:02;;;;;;;76.68;43.75;;;;;;;17.81;100.00;100638.31;4980301;28;20073;-82
2021/07/27 03:54:28;;;;;;;76.65;42.45;;;;;;;17.79;100.00;100629.53;4979100;28;20046;-86
2021/07/27 03:56:53;;;;;;;76.32;42.47;;;;;;;17.79;100.00;100634.16;4983937;28;20049;-82
2021/07/27 03:59:19;;;;;;;73.55;42.88;;;;;;;17.78;100.00;100633.31;4960462;28;20410;-83
2021/07/27 04:01:44;;;;;;;78.85;44.47;;;;;;;17.81;100.00;100646.47;4959114;28;20042;-84
2021/07/27 04:04:09;;;;;;;79.90;41.85;;;;;;;17.75;100.00;100649.16;4945509;28;20055;-82
2021/07/27 04:06:35;;;;;;;74.00;44.30;;;;;;;17.73;100.00;100652.09;4963312;28;20152;-82
2021/07/27 04:09:00;;;;;;;79.30;44.28;;;;;;;17.71;100.00;100654.19;4965274;28;20051;-86
2021/07/27 04:11:25;;;;;;;74.50;42.80;;;;;;;17.69;100.00;100658.16;4963854;28;21618;-83
2021/07/27 04:13:51;;;;;;;83.95;45.63;;;;;;;17.75;100.00;100663.56;4965150;28;20138;-86
2021/07/27 04:16:16;;;;;;;82.05;44.88;;;;;;;17.73;100.00;100667.53;4962985;28;20082;-84
2021/07/27 04:18:42;;;;;;;77.20;43.88;;;;;;;17.74;100.00;100661.88;4943057;28;20710;-84
2021/07/27 04:21:07;;;;;;;77.03;43.92;;;;;;;17.75;100.00;100660.00;4963956;28;20042;-87
2021/07/27 04:23:33;;;;;;;83.00;45.70;;;;;;;17.69;100.00;100658.97;4961500;28;20078;-83
2021/07/27 04:25:58;;;;;;;79.75;42.92;;;;;;;17.70;100.00;100668.81;4960639;28;20054;-83
2021/07/27 04:28:25;;;;;;;77.35;44.85;;;;;;;17.69;100.00;100667.13;4952742;28;20781;-83
2021/07/27 04:30:51;;;;;;;81.82;45.42;;;;;;;17.71;100.00;100665.03;4959495;28;20081;-85
2021/07/27 04:33:17;;;;;;;82.45;45.85;;;;;;;17.69;100.00;100669.00;4955270;28;20138;-83
2021/07/27 04:35:46;;;;;;;82.82;45.55;;;;;;;17.66;100.00;100672.16;4961532;28;20069;-86
2021/07/27 04:38:11;;;;;;;77.10;44.80;;;;;;;17.70;100.00;100674.22;4951401;28;20082;-91
2021/07/27 04:40:36;;;;;;;80.72;44.55;;;;;;;17.69;100.00;100675.25;4959680;28;20086;-81
2021/07/27 04:43:03;;;;;;;78.45;43.72;;;;;;;17.73;100.00;100675.69;4962397;28;20142;-83
2021/07/27 04:45:28;;;;;;;79.13;44.60;;;;;;;17.72;100.00;100677.56;4963173;28;20047;-82
2021/07/27 04:47:54;;;;;;;79.93;45.42;;;;;;;17.72;100.00;100672.16;4946228;28;20105;-83
2021/07/27 04:50:20;;;;;;;80.88;43.33;;;;;;;17.72;100.00;100674.84;4976637;28;20054;-82
2021/07/27 04:52:51;;;;;;;90.47;47.30;;;;;;;17.74;100.00;100670.03;4978673;28;20046;-88
2021/07/27 04:55:17;;;;;;;85.80;47.00;;;;;;;17.73;100.00;100679.22;4980686;28;20073;-82
2021/07/27 04:57:43;;;;;;;89.07;48.55;;;;;;;17.78;100.00;100674.03;4974263;28;20301;-83
2021/07/27 05:00:22;;;;;;;83.30;48.33;;;;;;;17.81;100.00;100679.03;4977508;28;20054;-84
2021/07/27 05:02:47;;;;;;;88.38;47.00;;;;;;;17.77;100.00;100680.47;4946713;28;20137;-85
2021/07/27 05:05:13;;;;;;;85.47;46.25;;;;;;;17.80;100.00;100680.06;4982152;28;20149;-82
2021/07/27 05:07:39;;;;;;;86.30;47.88;;;;;;;17.85;100.00;100671.28;4982504;28;20149;-83
2021/07/27 05:10:05;;;;;;;86.65;46.20;;;;;;;17.85;100.00;100678.59;4981444;28;20101;-86
2021/07/27 05:12:31;;;;;;;82.43;45.30;;;;;;;17.80;100.00;100677.34;4972285;28;20059;-83
2021/07/27 05:14:56;;;;;;;80.38;45.47;;;;;;;17.81;100.00;100681.75;4976033;28;20048;-84
2021/07/27 05:17:21;;;;;;;82.55;48.00;;;;;;;17.80;100.00;100684.66;4982771;28;20489;-83
2021/07/27 05:19:51;;;;;;;71.78;43.70;;;;;;;17.80;100.00;100684.66;4982853;28;20548;-83
2021/07/27 05:22:18;;;;;;;72.32;44.95;;;;;;;17.82;100.00;100677.13;4960545;28;20371;-83
2021/07/27 05:24:43;;;;;;;72.38;43.83;;;;;;;17.88;100.00;100676.28;4977564;28;20057;-84
2021/07/27 05:27:08;;;;;;;66.82;41.28;;;;;;;17.85;100.00;100671.28;4976661;28;20477;-84
2021/07/27 05:29:34;;;;;;;66.95;40.83;;;;;;;17.89;100.00;100672.50;4977353;28;20053;-83
2021/07/27 05:32:02;;;;;;;65.78;40.97;;;;;;;17.94;99.83;100671.88;4985449;28;20137;-83
2021/07/27 05:34:30;;;;;;;63.88;38.42;;;;;;;17.95;100.00;100677.09;4983059;28;20696;-90
2021/07/27 05:36:55;;;;;;;62.63;38.80;;;;;;;17.91;99.94;100672.31;4963321;28;20046;-88
2021/07/27 05:39:20;;;;;;;64.95;39.97;;;;;;;18.06;99.61;100675.56;4981286;28;20047;-87
2021/07/27 05:41:46;;;;;;;60.97;39.08;;;;;;;18.10;99.98;100676.00;4984234;28;20046;-86
2021/07/27 05:44:11;;;;;;;60.63;40.38;;;;;;;18.13;98.94;100678.28;4981509;28;20062;-84
2021/07/27 05:46:37;;;;;;;65.65;39.63;;;;;;;18.13;98.73;100678.28;4959313;28;20050;-88
2021/07/27 05:49:08;;;;;;;62.28;39.13;;;;;;;18.17;98.38;100685.75;4973351;28;20043;-87
2021/07/27 05:51:34;;;;;;;55.65;37.45;;;;;;;18.13;97.69;100680.97;4982299;28;20136;-89
2021/07/27 05:53:59;;;;;;;55.17;38.17;;;;;;;18.22;98.28;100683.22;4982066;28;20489;-83
2021/07/27 05:56:26;;;;;;;53.75;36.55;;;;;;;18.24;97.63;100681.13;4973844;28;20201;-86
2021/07/27 05:58:51;;;;;;;60.85;37.22;;;;;;;18.26;97.48;100673.56;4981726;28;20145;-87
2021/07/27 06:01:16;;;;;;;56.60;37.20;;;;;;;18.28;97.51;100676.09;4983016;28;20125;-89
2021/07/27 06:03:43;;;;;;;55.22;37.17;;;;;;;18.34;96.21;100677.09;4987478;28;20133;-83
2021/07/27 06:06:08;;;;;;;50.25;33.35;;;;;;;18.31;96.18;100666.66;4980943;28;20057;-82
2021/07/27 06:08:34;;;;;;;54.58;34.22;;;;;;;18.26;96.78;100662.72;4961100;28;20069;-84
2021/07/27 06:10:59;;;;;;;53.67;34.85;;;;;;;18.29;96.22;100666.88;5000892;28;20073;-86
2021/07/27 06:13:24;;;;;;;49.05;33.13;;;;;;;18.36;95.50;100666.84;4987955;28;20501;-91
2021/07/27 06:15:50;;;;;;;52.08;32.80;;;;;;;18.34;96.00;100661.63;4981492;28;20557;-83
2021/07/27 06:18:15;;;;;;;45.63;29.98;;;;;;;18.30;96.15;100657.69;4984356;28;20061;-86
2021/07/27 06:20:42;;;;;;;45.95;31.25;;;;;;;18.38;96.43;100659.28;4983478;28;20055;-87
2021/07/27 06:23:07;;;;;;;40.60;28.80;;;;;;;18.43;95.09;100667.63;4971688;28;20074;-85
2021/07/27 06:25:33;;;;;;;39.05;27.73;;;;;;;18.44;94.85;100672.00;4977101;28;20076;-84
2021/07/27 06:27:58;;;;;;;37.50;26.85;;;;;;;18.45;94.75;100665.53;4956442;28;20490;-90
2021/07/27 06:30:24;;;;;;;35.30;25.83;;;;;;;18.54;93.94;100663.38;4977600;28;20273;-84
2021/07/27 06:32:49;;;;;;;38.40;26.08;;;;;;;18.59;93.82;100677.16;4984926;28;21190;-84
2021/07/27 06:35:15;;;;;;;37.85;26.15;;;;;;;18.64;92.54;100675.44;4985531;28;20050;-86
2021/07/27 06:37:41;;;;;;;37.63;23.98;;;;;;;18.65;92.52;100679.81;4979829;28;20081;-83
2021/07/27 06:40:07;;;;;;;36.67;24.92;;;;;;;18.69;93.01;100681.03;4982204;28;20057;-91
2021/07/27 06:42:33;;;;;;;31.77;22.13;;;;;;;18.72;92.04;100679.75;4975592;28;20046;-85
2021/07/27 06:44:58;;;;;;;33.15;22.20;;;;;;;18.79;91.76;100685.16;4979060;28;20221;-85
2021/07/27 06:47:23;;;;;;;35.50;23.02;;;;;;;18.77;91.20;100677.25;4935383;28;20489;-83
2021/07/27 06:49:50;;;;;;;30.83;22.13;;;;;;;18.77;90.86;100679.97;4982238;28;20116;-85
2021/07/27 06:52:20;;;;;;;34.25;22.70;;;;;;;18.80;90.75;100684.13;4961839;28;20105;-91
2021/07/27 06:54:45;;;;;;;30.88;22.63;;;;;;;18.94;91.52;100691.13;4976918;28;20089;-86
2021/07/27 06:57:10;;;;;;;27.98;21.13;;;;;;;18.94;90.51;100686.53;4974773;28;20202;-85
2021/07/27 06:59:36;;;;;;;30.00;19.20;;;;;;;19.02;90.36;100690.00;4975677;28;20078;-85
2021/07/27 07:02:02;;;;;;;28.65;20.85;;;;;;;19.10;89.26;100689.72;4974896;28;20129;-86
2021/07/27 07:04:28;;;;;;;31.48;19.45;;;;;;;19.22;88.81;100689.81;4980083;28;20112;-83
2021/07/27 07:06:53;;;;;;;25.42;19.23;;;;;;;19.35;88.91;100693.25;4977677;28;20497;-90
2021/07/27 07:09:18;;;;;;;23.85;17.83;;;;;;;19.41;87.94;100696.97;4981492;28;21043;-86
2021/07/27 07:11:44;;;;;;;27.15;17.83;;;;;;;19.43;88.76;100696.75;4982023;28;20054;-87
2021/07/27 07:14:09;;;;;;;25.45;19.13;;;;;;;19.53;88.28;100706.03;4983921;28;20047;-88
2021/07/27 07:16:34;;;;;;;21.45;17.35;;;;;;;19.55;86.54;100701.22;4956872;28;20471;-84
2021/07/27 07:19:00;;;;;;;26.08;18.70;;;;;;;19.49;87.91;100704.00;4982856;28;20125;-91
2021/07/27 07:21:25;;;;;;;25.92;18.92;;;;;;;19.48;88.10;100702.31;4982385;28;20236;-86
2021/07/27 07:23:51;;;;;;;25.88;18.38;;;;;;;19.48;87.80;100700.47;4983240;28;20046;-86
2021/07/27 07:26:16;;;;;;;26.60;18.95;;;;;;;19.46;87.73;100699.84;4982781;28;20089;-86
2021/07/27 07:28:41;;;;;;;27.23;18.60;;;;;;;19.39;87.67;100708.09;4982472;28;20046;-87
2021/07/27 07:31:09;;;;;;;27.92;18.63;;;;;;;19.33;88.21;100694.53;4984634;28;20112;-84
2021/07/27 07:33:35;;;;;;;26.50;19.97;;;;;;;19.30;88.32;100694.97;4958567;28;20057;-85
2021/07/27 07:36:08;;;;;;;24.20;18.60;;;;;;;19.36;88.55;100704.97;4965937;28;20122;-87
2021/07/27 07:38:33;;;;;;;28.00;19.40;;;;;;;19.37;88.95;100701.19;4982489;28;20062;-87
2021/07/27 07:40:59;;;;;;;28.38;17.63;;;;;;;19.45;87.85;100700.91;4982790;28;20050;-85
2021/07/27 07:43:24;;;;;;;24.98;18.35;;;;;;;19.52;86.97;100706.28;4961619;28;20133;-87
2021/07/27 07:45:49;;;;;;;24.20;17.42;;;;;;;19.51;86.72;100710.06;4981440;28;20714;-88
2021/07/27 07:48:14;;;;;;;26.23;17.58;;;;;;;19.57;86.90;100711.88;4982816;28;20613;-86
2021/07/27 07:50:40;;;;;;;25.40;17.00;;;;;;;19.56;85.99;100699.31;4983208;28;20683;-85
2021/07/27 07:53:05;;;;;;;25.98;17.75;;;;;;;19.58;86.39;100703.47;4981972;28;20495;-86
2021/07/27 07:55:31;;;;;;;26.40;17.42;;;;;;;19.61;86.09;100691.31;4983363;28;20058;-84
2021/07/27 07:57:57;;;;;;;25.73;17.75;;;;;;;19.65;86.21;100702.56;4962547;28;20120;-89
2021/07/27 08:00:23;;;;;;;22.67;15.70;;;;;;;19.74;85.17;100695.81;4962506;28;20054;-90
2021/07/27 08:02:50;;;;;;;22.60;15.50;;;;;;;19.76;84.92;100699.97;4968877;28;20445;-85
2021/07/27 08:05:15;;;;;;;23.05;16.38;;;;;;;19.81;85.22;100699.28;4981947;28;20504;-84
2021/07/27 08:07:41;;;;;;;24.27;16.50;;;;;;;19.86;84.22;100693.16;4983235;28;20073;-85
2021/07/27 08:10:08;;;;;;;25.05;16.35;;;;;;;19.89;84.31;100692.72;4972104;28;20050;-89
2021/07/27 08:12:33;;;;;;;21.92;15.90;;;;;;;20.00;84.45;100698.22;4980466;28;20055;-85
2021/07/27 08:14:59;;;;;;;22.25;15.35;;;;;;;20.09;83.37;100698.75;4983240;28;20340;-85
2021/07/27 08:17:24;;;;;;;21.85;14.90;;;;;;;20.12;82.63;100703.72;4981421;28;20046;-84
2021/07/27 08:19:49;;;;;;;22.92;14.70;;;;;;;20.19;82.52;100701.72;4961755;28;20047;-85
2021/07/27 08:22:15;;;;;;;21.98;15.88;;;;;;;20.23;81.79;100689.31;4962293;28;20097;-90
2021/07/27 08:24:41;;;;;;;21.95;15.45;;;;;;;20.26;81.75;100690.75;4961621;28;20050;-86
2021/07/27 08:27:09;;;;;;;21.42;15.10;;;;;;;20.34;82.11;100695.03;4963559;28;20047;-87
2021/07/27 08:29:38;;;;;;;19.63;14.75;;;;;;;20.44;81.15;100690.69;4969167;28;20108;-87
2021/07/27 08:32:07;;;;;;;;;;;;;;;20.44;81.44;100695.31;4966573;28;20051;-85
2021/07/27 08:34:38;;;;;;;21.25;14.27;;;;;;;20.48;82.34;100700.09;4953248;28;19918;-90
2021/07/27 08:37:04;;;;;;;25.77;15.52;;;;;;;20.49;80.82;100692.75;4962881;28;20043;-85
2021/07/27 08:39:31;;;;;;;21.80;14.32;;;;;;;20.46;82.12;100695.94;4962138;28;20055;-87
2021/07/27 08:42:00;;;;;;;20.05;14.75;;;;;;;20.68;81.64;100690.78;4969324;28;20517;-84
2021/07/27 08:44:30;;;;;;;21.08;15.05;;;;;;;20.79;79.83;100691.91;4971389;28;20109;-86
2021/07/27 08:46:56;;;;;;;22.73;14.98;;;;;;;20.72;79.91;100687.38;4980477;28;20249;-85
2021/07/27 08:49:21;;;;;;;24.30;15.88;;;;;;;20.77;79.46;100677.66;4971109;28;20069;-86
2021/07/27 08:51:47;;;;;;;22.98;16.25;;;;;;;20.81;79.18;100679.69;4960721;28;20397;-88
2021/07/27 08:54:15;;;;;;;23.05;17.27;;;;;;;20.86;78.66;100678.97;4980463;28;20124;-88
2021/07/27 08:56:48;;;;;;;25.73;16.55;;;;;;;20.92;79.17;100675.31;4979805;28;20513;-84
2021/07/27 08:59:14;;;;;;;25.05;16.70;;;;;;;20.95;79.84;100677.59;4977194;28;20054;-84
2021/07/27 09:01:40;;;;;;;23.88;15.80;;;;;;;21.11;79.35;100678.75;4981487;28;20046;-86
2021/07/27 09:04:05;;;;;;;24.50;17.55;;;;;;;21.24;78.59;100677.72;4983082;28;20096;-85
2021/07/27 09:06:30;;;;;;;25.63;18.17;;;;;;;21.29;78.00;100675.94;4978917;28;20746;-89
2021/07/27 09:09:07;;;;;;;23.25;17.45;;;;;;;21.29;78.22;100666.91;4973379;28;20058;-86
2021/07/27 09:11:43;;;;;;;28.35;16.17;;;;;;;21.28;77.89;100676.97;4964000;28;20066;-85
2021/07/27 09:14:13;;;;;;;23.05;18.13;;;;;;;21.41;79.11;100675.97;4982682;28;20046;-93
2021/07/27 09:16:49;;;;;;;27.17;20.02;;;;;;;21.39;78.34;100670.72;4972280;28;20077;-84
2021/07/27 09:19:15;;;;;;;22.05;17.92;;;;;;;21.34;78.06;100681.47;4981031;28;20516;-84
2021/07/27 09:21:46;;;;;;;24.73;18.00;;;;;;;21.36;78.12;100673.94;4978929;28;20081;-86
2021/07/27 09:24:23;;;;;;;25.75;19.60;;;;;;;21.44;78.02;100677.38;4980580;28;20113;-86
2021/07/27 09:27:01;;;;;;;23.92;18.38;;;;;;;21.47;77.87;100676.91;4965458;28;20466;-85
2021/07/27 09:29:29;;;;;;;22.80;17.17;;;;;;;21.51;78.13;100673.44;4980925;28;20104;-85
2021/07/27 09:31:57;;;;;;;19.65;15.27;;;;;;;21.45;77.00;100676.31;4974518;28;20058;-87
2021/07/27 09:34:28;;;;;;;22.83;16.50;;;;;;;21.51;77.96;100680.81;4964988;28;20058;-89
2021/07/27 09:37:02;;;;;;;21.73;16.73;;;;;;;21.51;77.75;100673.44;4988477;28;20047;-84
2021/07/27 09:39:29;;;;;;;24.33;16.45;;;;;;;21.55;79.44;100668.31;4968322;28;20085;-87
2021/07/27 09:42:03;;;;;;;22.10;15.98;;;;;;;21.72;78.17;100676.59;4986697;28;20046;-87
2021/07/27 09:44:30;;;;;;;21.02;15.63;;;;;;;21.80;76.67;100670.75;4988028;28;20054;-85
2021/07/27 09:47:00;;;;;;;18.80;14.23;;;;;;;21.79;76.79;100672.69;4988010;28;20045;-86
2021/07/27 09:49:27;;;;;;;17.42;13.13;;;;;;;21.74;74.90;100672.56;4988030;28;20042;-86
2021/07/27 09:51:53;;;;;;;21.60;14.50;;;;;;;21.75;75.26;100674.25;4988737;28;20058;-87
2021/07/27 09:54:21;;;;;;;20.52;14.20;;;;;;;21.67;75.79;100666.41;4988134;28;20050;-87
2021/07/27 09:56:48;;;;;;;19.50;12.63;;;;;;;21.80;76.48;100670.75;4971788;28;20046;-85
2021/07/27 09:59:15;;;;;;;18.67;13.00;;;;;;;21.78;73.97;100675.63;4987254;28;20064;-86
2021/07/27 10:01:44;;;;;;;17.17;12.82;;;;;;;21.71;73.51;100675.78;4985086;28;20395;-91
2021/07/27 10:04:09;;;;;;;15.90;12.73;;;;;;;21.83;74.29;100662.91;4975417;28;20474;-84
2021/07/27 10:06:44;;;;;;;17.27;12.57;;;;;;;21.96;73.77;100669.19;4982117;28;20038;-87
2021/07/27 10:09:21;;;;;;;15.85;12.77;;;;;;;22.19;73.65;100679.25;4980033;28;20109;-85
2021/07/27 10:11:48;;;;;;;16.80;12.48;;;;;;;22.22;71.65;100679.56;4983876;28;20050;-83
2021/07/27 10:14:16;;;;;;;15.75;12.18;;;;;;;22.19;72.71;100681.97;4986019;28;20284;-91
2021/07/27 10:16:42;;;;;;;17.70;12.55;;;;;;;22.28;72.46;100681.31;4985003;28;20039;-84
2021/07/27 10:19:14;;;;;;;15.95;12.20;;;;;;;22.32;71.57;100680.84;4985670;28;20050;-85
2021/07/27 10:21:39;;;;;;;18.17;13.80;;;;;;;22.24;72.26;100685.63;4928542;28;20055;-90
2021/07/27 10:24:19;;;;;;;17.15;12.93;;;;;;;22.17;72.75;100687.66;4976009;28;20349;-83
2021/07/27 10:26:45;;;;;;;15.52;13.15;;;;;;;22.26;73.33;100678.00;4934208;28;20062;-84
2021/07/27 10:29:11;;;;;;;18.48;12.18;;;;;;;22.45;73.57;100683.28;4969305;28;20054;-86
2021/07/27 10:31:45;;;;;;;20.05;13.07;;;;;;;22.61;72.45;100684.38;4983108;28;20042;-86
2021/07/27 10:34:12;;;;;;;16.83;12.23;;;;;;;22.81;72.26;100686.63;4987835;28;20506;-85
2021/07/27 10:36:39;;;;;;;16.33;12.57;;;;;;;22.87;71.04;100685.63;4986054;28;20575;-83
2021/07/27 10:39:16;;;;;;;20.98;14.13;;;;;;;22.83;70.46;100687.22;4989367;28;20050;-90
2021/07/27 10:41:50;;;;;;;17.90;12.52;;;;;;;22.83;71.70;100679.00;4968464;28;20454;-83
2021/07/27 10:44:20;;;;;;;17.30;12.70;;;;;;;22.84;71.97;100680.66;4989292;28;20042;-83
2021/07/27 10:46:50;;;;;;;17.00;12.45;;;;;;;22.86;69.87;100675.78;4987092;28;20073;-83
2021/07/27 10:49:25;;;;;;;16.55;11.80;;;;;;;22.79;69.19;100675.09;4985181;28;20058;-85
2021/07/27 10:51:58;;;;;;;16.05;11.90;;;;;;;22.75;69.74;100672.84;4986747;28;20057;-90
2021/07/27 10:54:33;;;;;;;20.10;12.90;;;;;;;22.82;70.14;100688.31;4979484;28;20070;-84
2021/07/27 10:57:00;;;;;;;19.05;13.90;;;;;;;22.77;69.74;100678.09;4984487;28;20105;-87
2021/07/27 10:59:35;;;;;;;18.13;13.23;;;;;;;22.72;70.90;100676.09;4988442;28;20576;-87
2021/07/27 11:02:11;;;;;;;17.65;12.27;;;;;;;22.69;70.67;100682.06;4986011;28;20078;-84
2021/07/27 11:04:39;;;;;;;16.83;12.52;;;;;;;22.77;69.35;100680.00;4985107;28;20054;-84
2021/07/27 11:07:16;;;;;;;15.98;11.63;;;;;;;22.84;69.28;100678.75;4982706;28;20096;-88
2021/07/27 11:09:55;;;;;;;18.23;12.40;;;;;;;22.81;68.94;100686.63;4960048;28;20047;-84
2021/07/27 11:12:43;;;;;;;17.17;12.90;;;;;;;22.82;68.94;100683.66;4977115;28;20669;-84
2021/07/27 11:15:12;;;;;;;17.27;13.00;;;;;;;22.79;69.03;100672.34;4976481;28;20046;-84
2021/07/27 11:17:47;;;;;;;16.65;12.18;;;;;;;22.77;69.19;100661.69;4983777;28;20043;-86
2021/07/27 11:20:15;;;;;;;16.77;12.88;;;;;;;22.77;69.21;100672.63;4983972;28;20057;-92
2021/07/27 11:22:44;;;;;;;19.25;12.63;;;;;;;22.83;69.69;100674.34;4984939;28;20061;-85
2021/07/27 11:25:11;;;;;;;16.08;12.48;;;;;;;23.02;68.77;100666.78;4988507;28;20049;-84
2021/07/27 11:27:38;;;;;;;18.48;12.00;;;;;;;23.14;67.97;100659.28;4982874;28;20050;-85
2021/07/27 11:30:05;;;;;;;17.02;12.60;;;;;;;23.27;68.26;100657.28;4978002;28;20073;-92
2021/07/27 11:33:10;;;;;;;15.43;12.70;;;;;;;23.16;68.75;100662.63;4984162;28;20074;-90